KRNH/RNH METAR and TAF weather

Enter ICAO airport designator
Station Type Date Time Source
KRNH METAR 2020/10/29 17:15 UTC NOAA

KRNH 291715Z AUTO 02005KT 10SM BKN023 OVC034 01/M05 A3014 RMK AO2 T00061050


Station Type Date Time Source
KRNH Decoded METAR 2020/10/29 17:15 UTC NOAA

New Richmond, New Richmond Municipal Airport, WI, United States (KRNH) 45-08-54N 092-32-17W
Oct 29, 2020 - 01:15 PM EDT / 2020.10.29 1715 UTC
Wind: from the NNE (020 degrees) at 6 MPH (5 KT):0
Visibility: 10 mile(s):0
Sky conditions: overcast
Temperature: 33.1 F (0.6 C)
Windchill: 28 F (-2 C):1
Dew Point: 23.0 F (-5.0 C)
Relative Humidity: 66%
Pressure (altimeter): 30.14 in. Hg (1020 hPa)
ob: KRNH 291715Z AUTO 02005KT 10SM BKN023 OVC034 01/M05 A3014 RMK AO2 T00061050
cycle: 17

Station Type Date Time Source
KRNH TAF 2020/10/29 16:45 UTC NOAA

TAF
AMD KRNH 291542Z 2916/3012 36008KT P6SM OVC020
TEMPO 2916/2918 SCT020 OVC035
FM291800 36004KT P6SM SCT120
FM300200 00000KT P6SM OVC060
FM300800 00000KT P6SM -SN OVC040

Example: see airport list